Time,TemperatureF,DewpointF,PressureIn,WindDirection,WindDirectionDegrees,WindSpeedMPH,WindSpeedGustMPH,Humidity,HourlyPrecipIn,Conditions,Clouds,dailyrainin,SoftwareType,DateUTC
2014-01-09 00:05:00,21.0,19.5,29.52,SSE,157,0.0,1.0,94,0.00,,,0.00,Weather View 32 v70,2014-01-09 05:05:00,
2014-01-09 00:10:00,21.0,17.7,29.53,SSW,202,0.0,1.0,87,0.00,,,0.00,Weather View 32 v70,2014-01-09 05:10:00,
2014-01-09 00:20:00,21.0,17.2,29.53,SSW,202,0.0,1.0,85,0.00,,,0.00,Weather View 32 v70,2014-01-09 05:20:00,
2014-01-09 00:30:00,21.0,16.9,29.53,SSW,202,0.0,1.0,84,0.00,,,0.00,Weather View 32 v70,2014-01-09 05:30:00,
2014-01-09 00:40:00,21.0,21.0,29.53,ESE,112,0.0,1.0,100,0.00,,,0.00,Weather View 32 v70,2014-01-09 05:40:00,
2014-01-09 00:45:00,21.0,21.0,29.53,ESE,112,0.0,1.0,100,0.00,,,0.00,Weather View 32 v70,2014-01-09 05:45:00,
2014-01-09 00:50:00,21.0,20.3,29.53,ESE,112,0.0,1.0,97,0.00,,,0.00,Weather View 32 v70,2014-01-09 05:50:00,
2014-01-09 00:55:00,21.0,18.8,29.53,SE,135,0.0,1.0,91,0.00,,,0.00,Weather View 32 v70,2014-01-09 05:55:00,
2014-01-09 01:00:00,21.0,15.2,29.53,SW,225,0.0,1.0,78,0.00,,,0.00,Weather View 32 v70,2014-01-09 06:00:00,
2014-01-09 01:05:00,21.0,18.3,29.53,SW,225,0.0,1.0,89,0.00,,,0.00,Weather View 32 v70,2014-01-09 06:05:00,
2014-01-09 01:15:00,21.0,16.7,29.53,West,270,0.0,0.0,83,0.00,,,0.00,Weather View 32 v70,2014-01-09 06:15:00,
2014-01-09 01:20:00,20.0,15.9,29.53,West,270,0.0,0.0,84,0.00,,,0.00,Weather View 32 v70,2014-01-09 06:20:00,
2014-01-09 01:25:00,20.0,16.2,29.53,West,270,0.0,0.0,85,0.00,,,0.00,Weather View 32 v70,2014-01-09 06:25:00,
2014-01-09 01:35:00,20.0,15.7,29.54,WNW,292,0.0,0.0,83,0.00,,,0.00,Weather View 32 v70,2014-01-09 06:35:00,
2014-01-09 01:40:00,20.0,16.5,29.54,WNW,292,0.0,0.0,86,0.00,,,0.00,Weather View 32 v70,2014-01-09 06:40:00,
2014-01-09 01:45:00,19.0,15.8,29.54,NW,315,0.0,0.0,87,0.00,,,0.00,Weather View 32 v70,2014-01-09 06:45:00,
2014-01-09 01:55:00,20.0,16.8,29.55,NW,315,0.0,1.0,87,0.00,,,0.00,Weather View 32 v70,2014-01-09 06:55:00,
2014-01-09 02:05:00,20.0,15.4,29.55,NW,315,0.0,1.0,82,0.00,,,0.00,Weather View 32 v70,2014-01-09 07:05:00,
2014-01-09 02:10:00,20.0,15.7,29.55,NW,315,0.0,1.0,83,0.00,,,0.00,Weather View 32 v70,2014-01-09 07:10:00,
2014-01-09 02:20:00,21.0,16.1,29.54,NW,315,0.0,1.0,81,0.00,,,0.00,Weather View 32 v70,2014-01-09 07:20:00,
2014-01-09 02:25:00,21.0,16.4,29.55,NW,315,0.0,1.0,82,0.00,,,0.00,Weather View 32 v70,2014-01-09 07:25:00,
2014-01-09 02:30:00,21.0,16.7,29.55,NW,315,0.0,1.0,83,0.00,,,0.00,Weather View 32 v70,2014-01-09 07:30:00,
2014-01-09 02:35:00,20.0,15.4,29.55,NW,315,0.0,1.0,82,0.00,,,0.00,Weather View 32 v70,2014-01-09 07:35:00,
2014-01-09 02:40:00,20.0,15.1,29.55,NW,315,0.0,1.0,81,0.00,,,0.00,Weather View 32 v70,2014-01-09 07:40:00,
2014-01-09 02:50:00,20.0,16.8,29.56,NNW,337,0.0,1.0,87,0.00,,,0.00,Weather View 32 v70,2014-01-09 07:50:00,
2014-01-09 02:55:00,20.0,16.8,29.56,NNW,337,0.0,1.0,87,0.00,,,0.00,Weather View 32 v70,2014-01-09 07:55:00,
2014-01-09 03:05:00,20.0,15.1,29.57,NNW,337,0.0,1.0,81,0.00,,,0.00,Weather View 32 v70,2014-01-09 08:05:00,
2014-01-09 03:10:00,20.0,16.8,29.57,NNW,337,0.0,1.0,87,0.00,,,0.00,Weather View 32 v70,2014-01-09 08:10:00,
2014-01-09 03:20:00,20.0,18.1,29.57,North,360,0.0,0.0,92,0.00,,,0.00,Weather View 32 v70,2014-01-09 08:20:00,
2014-01-09 03:25:00,20.0,18.1,29.57,North,360,0.0,0.0,92,0.00,,,0.00,Weather View 32 v70,2014-01-09 08:25:00,
2014-01-09 03:35:00,20.0,16.8,29.57,NNW,337,0.0,0.0,87,0.00,,,0.00,Weather View 32 v70,2014-01-09 08:35:00,
2014-01-09 03:40:00,20.0,15.9,29.58,WNW,292,0.0,0.0,84,0.00,,,0.00,Weather View 32 v70,2014-01-09 08:40:00,
2014-01-09 03:45:00,20.0,15.7,29.58,West,270,0.0,0.0,83,0.00,,,0.00,Weather View 32 v70,2014-01-09 08:45:00,
2014-01-09 03:55:00,20.0,15.7,29.57,West,270,0.0,0.0,83,0.00,,,0.00,Weather View 32 v70,2014-01-09 08:55:00,
2014-01-09 04:05:00,20.0,15.9,29.58,WNW,292,0.0,0.0,84,0.00,,,0.00,Weather View 32 v70,2014-01-09 09:05:00,
2014-01-09 04:10:00,20.0,16.5,29.57,WNW,292,0.0,0.0,86,0.00,,,0.00,Weather View 32 v70,2014-01-09 09:10:00,
2014-01-09 04:20:00,21.0,15.8,29.57,WNW,292,0.0,0.0,80,0.00,,,0.00,Weather View 32 v70,2014-01-09 09:20:00,
2014-01-09 04:25:00,21.0,15.5,29.57,WNW,292,0.0,0.0,79,0.00,,,0.00,Weather View 32 v70,2014-01-09 09:25:00,
2014-01-09 04:35:00,22.0,15.0,29.57,West,270,0.0,0.0,74,0.00,,,0.00,Weather View 32 v70,2014-01-09 09:35:00,
2014-01-09 04:40:00,22.0,15.6,29.57,West,270,0.0,0.0,76,0.00,,,0.00,Weather View 32 v70,2014-01-09 09:40:00,
2014-01-09 04:50:00,22.0,16.5,29.57,West,270,0.0,0.0,79,0.00,,,0.00,Weather View 32 v70,2014-01-09 09:50:00,
2014-01-09 05:00:00,23.0,15.6,29.57,West,270,0.0,0.0,73,0.00,,,0.00,Weather View 32 v70,2014-01-09 10:00:00,
2014-01-09 05:05:00,23.0,15.6,29.57,West,270,0.0,0.0,73,0.00,,,0.00,Weather View 32 v70,2014-01-09 10:05:00,
2014-01-09 05:15:00,23.0,18.3,29.57,West,270,0.0,0.0,82,0.00,,,0.00,Weather View 32 v70,2014-01-09 10:15:00,
2014-01-09 05:25:00,23.0,21.3,29.57,WNW,292,0.0,0.0,93,0.00,,,0.00,Weather View 32 v70,2014-01-09 10:25:00,
2014-01-09 05:35:00,22.0,19.5,29.57,East,90,0.0,1.0,90,0.00,,,0.00,Weather View 32 v70,2014-01-09 10:35:00,
2014-01-09 05:45:00,22.0,19.8,29.57,East,90,0.0,1.0,91,0.00,,,0.00,Weather View 32 v70,2014-01-09 10:45:00,
2014-01-09 05:50:00,22.0,19.5,29.58,ENE,67,0.0,1.0,90,0.00,,,0.00,Weather View 32 v70,2014-01-09 10:50:00,
2014-01-09 06:00:00,22.0,18.7,29.59,North,360,0.0,1.0,87,0.00,,,0.00,Weather View 32 v70,2014-01-09 11:00:00,
2014-01-09 06:05:00,22.0,18.7,29.59,North,360,0.0,1.0,87,0.00,,,0.00,Weather View 32 v70,2014-01-09 11:05:00,
2014-01-09 06:15:00,22.0,16.5,29.59,NNE,22,0.0,1.0,79,0.00,,,0.00,Weather View 32 v70,2014-01-09 11:15:00,
2014-01-09 06:25:00,22.0,18.7,29.59,North,360,0.0,1.0,87,0.00,,,0.00,Weather View 32 v70,2014-01-09 11:25:00,
2014-01-09 06:35:00,21.0,17.5,29.60,NNW,337,0.0,0.0,86,0.00,,,0.00,Weather View 32 v70,2014-01-09 11:35:00,
2014-01-09 06:40:00,21.0,18.0,29.60,NW,315,0.0,1.0,88,0.00,,,0.00,Weather View 32 v70,2014-01-09 11:40:00,
2014-01-09 06:45:00,21.0,16.4,29.60,NW,315,0.0,1.0,82,0.00,,,0.00,Weather View 32 v70,2014-01-09 11:45:00,
2014-01-09 06:50:00,20.0,15.4,29.60,NW,315,0.0,1.0,82,0.00,,,0.00,Weather View 32 v70,2014-01-09 11:50:00,
2014-01-09 06:55:00,20.0,15.7,29.60,NW,315,0.0,1.0,83,0.00,,,0.00,Weather View 32 v70,2014-01-09 11:55:00,
2014-01-09 07:05:00,20.0,15.7,29.62,NW,315,0.0,1.0,83,0.00,,,0.00,Weather View 32 v70,2014-01-09 12:05:00,
2014-01-09 07:10:00,20.0,15.7,29.62,NNW,337,0.0,1.0,83,0.00,,,0.00,Weather View 32 v70,2014-01-09 12:10:00,
2014-01-09 07:20:00,20.0,17.3,29.62,NE,45,0.0,1.0,89,0.00,,,0.00,Weather View 32 v70,2014-01-09 12:20:00,
2014-01-09 07:25:00,20.0,16.8,29.63,NE,45,0.0,3.0,87,0.00,,,0.00,Weather View 32 v70,2014-01-09 12:25:00,
2014-01-09 07:35:00,19.0,17.6,29.63,NE,45,6.0,9.0,94,0.00,,,0.00,Weather View 32 v70,2014-01-09 12:35:00,
2014-01-09 07:40:00,19.0,18.8,29.64,NE,45,2.0,9.0,99,0.00,,,0.00,Weather View 32 v70,2014-01-09 12:40:00,
2014-01-09 07:50:00,19.0,18.5,29.64,NE,45,0.0,9.0,98,0.00,,,0.00,Weather View 32 v70,2014-01-09 12:50:00,
2014-01-09 08:00:00,19.0,18.5,29.65,NW,315,0.0,9.0,98,0.00,,,0.00,Weather View 32 v70,2014-01-09 13:00:00,
2014-01-09 08:05:00,19.0,19.0,29.65,NNE,22,0.0,9.0,100,0.00,,,0.00,Weather View 32 v70,2014-01-09 13:05:00,
2014-01-09 08:15:00,20.0,17.3,29.65,ENE,67,1.0,9.0,89,0.00,,,0.00,Weather View 32 v70,2014-01-09 13:15:00,
2014-01-09 08:25:00,21.0,17.5,29.66,East,90,0.0,9.0,86,0.00,,,0.00,Weather View 32 v70,2014-01-09 13:25:00,
2014-01-09 08:30:00,22.0,16.5,29.65,East,90,0.0,9.0,79,0.00,,,0.00,Weather View 32 v70,2014-01-09 13:30:00,
2014-01-09 08:35:00,22.0,19.8,29.65,ENE,67,1.0,9.0,91,0.00,,,0.00,Weather View 32 v70,2014-01-09 13:35:00,
2014-01-09 08:45:00,21.0,16.1,29.65,ENE,67,0.0,6.0,81,0.00,,,0.00,Weather View 32 v70,2014-01-09 13:45:00,
2014-01-09 08:55:00,22.0,22.0,29.66,ESE,112,0.0,6.0,100,0.00,,,0.00,Weather View 32 v70,2014-01-09 13:55:00,
2014-01-09 09:00:00,21.0,21.0,29.66,SE,135,0.0,6.0,100,0.00,,,0.00,Weather View 32 v70,2014-01-09 14:00:00,
2014-01-09 09:10:00,21.0,21.0,29.67,ESE,112,1.0,6.0,100,0.00,,,0.00,Weather View 32 v70,2014-01-09 14:10:00,
2014-01-09 09:20:00,21.0,21.0,29.67,SE,135,0.0,6.0,100,0.00,,,0.00,Weather View 32 v70,2014-01-09 14:20:00,
2014-01-09 09:25:00,22.0,22.0,29.67,ENE,67,0.0,6.0,100,0.00,,,0.00,Weather View 32 v70,2014-01-09 14:25:00,
2014-01-09 09:35:00,24.0,21.0,29.67,NNE,22,0.0,2.0,88,0.00,,,0.00,Weather View 32 v70,2014-01-09 14:35:00,
2014-01-09 09:40:00,24.0,19.6,29.66,NE,45,0.0,2.0,83,0.00,,,0.00,Weather View 32 v70,2014-01-09 14:40:00,
2014-01-09 09:50:00,25.0,20.6,29.66,ENE,67,0.0,3.0,83,0.00,,,0.00,Weather View 32 v70,2014-01-09 14:50:00,
2014-01-09 10:00:00,27.0,21.7,29.65,NNE,22,0.0,3.0,80,0.00,,,0.00,Weather View 32 v70,2014-01-09 15:00:00,
2014-01-09 10:05:00,24.0,21.8,29.67,ENE,67,6.0,7.0,91,0.00,,,0.00,Weather View 32 v70,2014-01-09 15:05:00,
2014-01-09 10:15:00,25.0,21.7,29.67,NNE,22,1.0,7.0,87,0.00,,,0.00,Weather View 32 v70,2014-01-09 15:15:00,
2014-01-09 10:25:00,25.0,21.1,29.67,NNE,22,0.0,7.0,85,0.00,,,0.00,Weather View 32 v70,2014-01-09 15:25:00,
2014-01-09 10:35:00,26.0,22.4,29.67,North,360,0.0,7.0,86,0.00,,,0.00,Weather View 32 v70,2014-01-09 15:35:00,
2014-01-09 10:40:00,26.0,22.4,29.66,North,360,0.0,7.0,86,0.00,,,0.00,Weather View 32 v70,2014-01-09 15:40:00,
2014-01-09 10:50:00,27.0,23.6,29.66,North,360,0.0,7.0,87,0.00,,,0.00,Weather View 32 v70,2014-01-09 15:50:00,
2014-01-09 11:00:00,27.0,23.4,29.64,NW,315,0.0,9.0,86,0.00,,,0.00,Weather View 32 v70,2014-01-09 16:00:00,
2014-01-09 11:05:00,26.0,23.5,29.65,East,90,2.0,9.0,90,0.00,,,0.00,Weather View 32 v70,2014-01-09 16:05:00,
2014-01-09 11:15:00,27.0,23.9,29.65,East,90,0.0,9.0,88,0.00,,,0.00,Weather View 32 v70,2014-01-09 16:15:00,
2014-01-09 11:20:00,27.0,24.2,29.65,NE,45,0.0,9.0,89,0.00,,,0.00,Weather View 32 v70,2014-01-09 16:20:00,
2014-01-09 11:30:00,28.0,24.6,29.63,SE,135,0.0,9.0,87,0.00,,,0.00,Weather View 32 v70,2014-01-09 16:30:00,
2014-01-09 11:45:00,27.0,23.9,29.63,East,90,3.0,9.0,88,0.00,,,0.00,Weather View 32 v70,2014-01-09 16:45:00,
2014-01-09 11:50:00,27.0,24.2,29.63,SE,135,1.0,9.0,89,0.00,,,0.00,Weather View 32 v70,2014-01-09 16:50:00,
2014-01-09 12:05:00,27.0,23.9,29.63,ENE,67,4.0,9.0,88,0.00,,,0.00,Weather View 32 v70,2014-01-09 17:05:00,
2014-01-09 12:15:00,28.0,26.2,29.62,SSE,157,0.0,9.0,93,0.00,,,0.00,Weather View 32 v70,2014-01-09 17:15:00,
2014-01-09 12:25:00,28.0,25.2,29.61,East,90,2.0,9.0,89,0.00,,,0.00,Weather View 32 v70,2014-01-09 17:25:00,
2014-01-09 12:30:00,27.0,24.5,29.61,SE,135,0.0,9.0,90,0.00,,,0.00,Weather View 32 v70,2014-01-09 17:30:00,
2014-01-09 12:40:00,29.0,26.2,29.59,ENE,67,4.0,11.0,89,0.00,,,0.00,Weather View 32 v70,2014-01-09 17:40:00,
2014-01-09 13:15:00,27.0,25.8,29.60,ESE,112,4.0,12.0,95,0.00,,,0.00,Weather View 32 v70,2014-01-09 18:15:00,
2014-01-09 13:25:00,28.0,25.4,29.58,ENE,67,10.0,12.0,90,0.00,,,0.00,Weather View 32 v70,2014-01-09 18:25:00,
2014-01-09 13:31:00,27.0,25.2,29.59,SE,135,3.0,12.0,93,0.00,,,0.00,Weather View 32 v70,2014-01-09 18:31:00,
2014-01-09 13:40:00,28.0,27.3,29.59,SE,135,0.0,12.0,97,0.00,,,0.00,Weather View 32 v70,2014-01-09 18:40:00,
2014-01-09 13:50:00,29.0,28.0,29.58,ENE,67,2.0,12.0,96,0.00,,,0.00,Weather View 32 v70,2014-01-09 18:50:00,
2014-01-09 14:00:00,28.0,26.2,29.58,SE,135,2.0,12.0,93,0.00,,,0.00,Weather View 32 v70,2014-01-09 19:00:00,
2014-01-09 14:10:00,29.0,28.8,29.58,SE,135,0.0,11.0,99,0.00,,,0.00,Weather View 32 v70,2014-01-09 19:10:00,
2014-01-09 14:25:00,29.0,29.0,29.59,SE,135,0.0,11.0,100,0.00,,,0.00,Weather View 32 v70,2014-01-09 19:25:00,
2014-01-09 14:32:00,29.0,29.0,29.59,SE,135,2.0,11.0,100,0.00,,,0.00,Weather View 32 v70,2014-01-09 19:32:00,
2014-01-09 14:40:00,30.0,29.0,29.58,ENE,67,1.0,11.0,96,0.00,,,0.00,Weather View 32 v70,2014-01-09 19:40:00,
2014-01-09 14:55:00,29.0,28.8,29.59,SE,135,0.0,11.0,99,0.00,,,0.00,Weather View 32 v70,2014-01-09 19:55:00,
2014-01-09 15:35:00,31.0,31.0,29.57,ESE,112,0.0,6.0,100,0.00,,,0.00,Weather View 32 v70,2014-01-09 20:35:00,
2014-01-09 15:50:00,30.0,29.5,29.59,ESE,112,0.0,6.0,98,0.00,,,0.00,Weather View 32 v70,2014-01-09 20:50:00,
2014-01-09 16:05:00,29.0,27.5,29.59,SSE,157,0.0,6.0,94,0.00,,,0.00,Weather View 32 v70,2014-01-09 21:05:00,
2014-01-09 16:10:00,29.0,27.7,29.59,SE,135,0.0,3.0,95,0.00,,,0.00,Weather View 32 v70,2014-01-09 21:10:00,
2014-01-09 16:30:00,28.0,28.0,29.60,SE,135,0.0,1.0,100,0.00,,,0.00,Weather View 32 v70,2014-01-09 21:30:00,
2014-01-09 16:35:00,28.0,28.0,29.60,SSE,157,0.0,1.0,100,0.00,,,0.00,Weather View 32 v70,2014-01-09 21:35:00,
2014-01-09 16:50:00,27.0,27.0,29.60,SE,135,0.0,1.0,100,0.00,,,0.00,Weather View 32 v70,2014-01-09 21:50:00,
2014-01-09 17:00:00,27.0,27.0,29.61,SE,135,0.0,1.0,100,0.00,,,0.00,Weather View 32 v70,2014-01-09 22:00:00,
2014-01-09 17:30:00,26.0,26.0,29.59,East,90,0.0,1.0,100,0.00,,,0.00,Weather View 32 v70,2014-01-09 22:30:00,
2014-01-09 17:40:00,27.0,27.0,29.59,ENE,67,0.0,1.0,100,0.00,,,0.00,Weather View 32 v70,2014-01-09 22:40:00,
2014-01-09 18:10:00,25.0,25.0,29.61,ENE,67,0.0,2.0,100,0.00,,,0.00,Weather View 32 v70,2014-01-09 23:10:00,
2014-01-09 18:34:00,26.0,26.0,29.60,East,90,1.0,2.0,100,0.00,,,0.00,Weather View 32 v70,2014-01-09 23:34:00,
2014-01-09 19:25:00,27.0,27.0,29.59,NE,45,1.0,4.0,100,0.00,,,0.00,Weather View 32 v70,2014-01-10 00:25:00,
2014-01-09 19:34:00,26.0,26.0,29.59,ENE,67,1.0,4.0,100,0.00,,,0.00,Weather View 32 v70,2014-01-10 00:34:00,
2014-01-09 19:40:00,26.0,26.0,29.60,ENE,67,1.0,4.0,100,0.00,,,0.00,Weather View 32 v70,2014-01-10 00:40:00,
2014-01-09 19:45:00,26.0,26.0,29.60,ESE,112,0.0,7.0,100,0.00,,,0.00,Weather View 32 v70,2014-01-10 00:45:00,
2014-01-09 19:55:00,26.0,26.0,29.60,East,90,0.0,7.0,100,0.00,,,0.00,Weather View 32 v70,2014-01-10 00:55:00,
2014-01-09 20:05:00,26.0,26.0,29.60,SE,135,0.0,7.0,100,0.00,,,0.00,Weather View 32 v70,2014-01-10 01:05:00,
2014-01-09 20:15:00,25.0,25.0,29.61,SE,135,0.0,7.0,100,0.00,,,0.00,Weather View 32 v70,2014-01-10 01:15:00,
2014-01-09 20:20:00,25.0,25.0,29.61,South,180,0.0,7.0,100,0.00,,,0.00,Weather View 32 v70,2014-01-10 01:20:00,
2014-01-09 20:30:00,25.0,25.0,29.61,SSE,157,0.0,7.0,100,0.00,,,0.00,Weather View 32 v70,2014-01-10 01:30:00,
2014-01-09 20:35:00,25.0,25.0,29.61,WSW,247,0.0,7.0,100,0.00,,,0.00,Weather View 32 v70,2014-01-10 01:35:00,
2014-01-09 20:45:00,26.0,26.0,29.61,SSE,157,0.0,7.0,100,0.00,,,0.00,Weather View 32 v70,2014-01-10 01:45:00,
2014-01-09 20:50:00,26.0,26.0,29.60,South,180,0.0,2.0,100,0.00,,,0.00,Weather View 32 v70,2014-01-10 01:50:00,
2014-01-09 21:00:00,26.0,26.0,29.61,SSW,202,0.0,4.0,100,0.00,,,0.00,Weather View 32 v70,2014-01-10 02:00:00,
2014-01-09 21:10:00,26.0,26.0,29.61,SE,135,0.0,4.0,100,0.00,,,0.00,Weather View 32 v70,2014-01-10 02:10:00,
2014-01-09 21:20:00,27.0,27.0,29.61,SE,135,0.0,8.0,100,0.00,,,0.00,Weather View 32 v70,2014-01-10 02:20:00,
2014-01-09 21:25:00,27.0,27.0,29.60,South,180,2.0,8.0,100,0.00,,,0.00,Weather View 32 v70,2014-01-10 02:25:00,
2014-01-09 21:35:00,27.0,27.0,29.60,SE,135,1.0,10.0,100,0.00,,,0.00,Weather View 32 v70,2014-01-10 02:35:00,
2014-01-09 21:45:00,27.0,27.0,29.60,ESE,112,6.0,12.0,100,0.00,,,0.00,Weather View 32 v70,2014-01-10 02:45:00,
2014-01-09 21:55:00,27.0,27.0,29.59,SE,135,3.0,16.0,100,0.00,,,0.00,Weather View 32 v70,2014-01-10 02:55:00,
2014-01-09 22:00:00,27.0,27.0,29.59,SE,135,0.0,16.0,100,0.00,,,0.00,Weather View 32 v70,2014-01-10 03:00:00,
2014-01-09 22:10:00,26.0,26.0,29.59,South,180,0.0,16.0,100,0.00,,,0.00,Weather View 32 v70,2014-01-10 03:10:00,
2014-01-09 22:15:00,26.0,26.0,29.60,SE,135,7.0,16.0,100,0.00,,,0.00,Weather View 32 v70,2014-01-10 03:15:00,
2014-01-09 22:20:00,27.0,27.0,29.59,SSE,157,2.0,16.0,100,0.00,,,0.00,Weather View 32 v70,2014-01-10 03:20:00,
2014-01-09 22:25:00,26.0,26.0,29.59,SSE,157,5.0,16.0,100,0.00,,,0.00,Weather View 32 v70,2014-01-10 03:25:00,
2014-01-09 22:35:00,26.0,26.0,29.59,ESE,112,5.0,16.0,100,0.00,,,0.00,Weather View 32 v70,2014-01-10 03:35:00,
2014-01-09 22:40:00,26.0,26.0,29.59,ESE,112,2.0,16.0,100,0.00,,,0.00,Weather View 32 v70,2014-01-10 03:40:00,
2014-01-09 22:45:00,26.0,26.0,29.58,SE,135,7.0,16.0,100,0.00,,,0.00,Weather View 32 v70,2014-01-10 03:45:00,
2014-01-09 22:55:00,26.0,26.0,29.58,SE,135,7.0,16.0,100,0.00,,,0.00,Weather View 32 v70,2014-01-10 03:55:00,
2014-01-09 23:05:00,25.0,25.0,29.57,SSE,157,0.0,16.0,100,0.00,,,0.00,Weather View 32 v70,2014-01-10 04:05:00,
2014-01-09 23:10:00,25.0,25.0,29.58,South,180,0.0,16.0,100,0.00,,,0.00,Weather View 32 v70,2014-01-10 04:10:00,
2014-01-09 23:20:00,25.0,25.0,29.59,SSE,157,0.0,16.0,100,0.00,,,0.00,Weather View 32 v70,2014-01-10 04:20:00,
2014-01-09 23:25:00,25.0,25.0,29.59,SSE,157,1.0,16.0,100,0.00,,,0.00,Weather View 32 v70,2014-01-10 04:25:00,
2014-01-09 23:30:00,26.0,26.0,29.57,SE,135,0.0,16.0,100,0.00,,,0.00,Weather View 32 v70,2014-01-10 04:30:00,
2014-01-09 23:37:00,25.0,25.0,29.57,South,180,6.0,16.0,100,0.00,,,0.00,Weather View 32 v70,2014-01-10 04:37:00,
2014-01-09 23:45:00,26.0,26.0,29.57,SSE,157,5.0,15.0,100,0.00,,,0.00,Weather View 32 v70,2014-01-10 04:45:00,
2014-01-09 23:50:00,26.0,26.0,29.57,South,180,0.0,13.0,100,0.00,,,0.00,Weather View 32 v70,2014-01-10 04:50:00,
2014-01-09 23:55:00,26.0,26.0,29.57,SSE,157,0.0,13.0,100,0.00,,,0.00,Weather View 32 v70,2014-01-10 04:55:00,